createdAt,value
2023-09-09T00:00:37.862Z,18.98
2023-09-09T00:03:05.046Z,19.08
2023-09-09T00:05:32.639Z,19.73
2023-09-09T00:07:59.354Z,20.50
2023-09-09T00:10:26.133Z,17.80
2023-09-09T00:12:52.837Z,20.70
2023-09-09T00:15:19.634Z,19.52
2023-09-09T00:17:46.446Z,19.00
2023-09-09T00:20:15.842Z,16.90
2023-09-09T00:22:42.547Z,20.40
2023-09-09T00:25:09.520Z,16.25
2023-09-09T00:27:36.330Z,19.45
2023-09-09T00:30:03.282Z,18.60
2023-09-09T00:32:30.017Z,16.98
2023-09-09T00:34:56.817Z,22.13
2023-09-09T00:37:23.531Z,17.77
2023-09-09T00:39:50.699Z,17.58
2023-09-09T00:42:17.388Z,20.58
2023-09-09T00:44:44.185Z,17.48
2023-09-09T00:47:11.206Z,19.80
2023-09-09T00:49:38.094Z,16.98
2023-09-09T00:52:05.214Z,17.48
2023-09-09T00:54:33.701Z,18.55
2023-09-09T00:57:04.311Z,16.67
2023-09-09T00:59:31.756Z,18.45
2023-09-09T01:01:58.756Z,17.10
2023-09-09T01:04:25.797Z,16.80
2023-09-09T01:06:53.391Z,17.00
2023-09-09T01:09:20.210Z,16.35
2023-09-09T01:11:46.931Z,18.70
2023-09-09T01:14:14.424Z,17.88
2023-09-09T01:16:43.151Z,15.25
2023-09-09T01:19:14.030Z,17.70
2023-09-09T01:24:08.767Z,16.33
2023-09-09T01:26:36.094Z,20.58
2023-09-09T01:29:03.091Z,13.07
2023-09-09T01:31:29.947Z,17.25
2023-09-09T01:33:58.032Z,13.63
2023-09-09T01:36:25.265Z,15.95
2023-09-09T01:38:51.998Z,20.60
2023-09-09T01:41:18.801Z,14.05
2023-09-09T01:43:45.598Z,13.48
2023-09-09T01:46:12.414Z,21.77
2023-09-09T01:48:39.314Z,15.00
2023-09-09T01:51:07.295Z,14.63
2023-09-09T01:53:34.145Z,13.63
2023-09-09T01:56:00.945Z,20.08
2023-09-09T01:58:27.741Z,17.70
2023-09-09T02:00:54.503Z,18.88
2023-09-09T02:03:21.620Z,14.38
2023-09-09T02:05:48.477Z,18.27
2023-09-09T02:08:15.207Z,18.60
2023-09-09T02:10:42.865Z,21.50
2023-09-09T02:13:09.650Z,21.50
2023-09-09T02:15:36.467Z,19.10
2023-09-09T02:18:03.961Z,22.00
2023-09-09T02:20:30.891Z,20.83
2023-09-09T02:22:57.628Z,23.20
2023-09-09T02:25:24.442Z,21.27
2023-09-09T02:27:51.342Z,26.20
2023-09-09T02:30:18.145Z,19.80
2023-09-09T02:32:45.448Z,21.83
2023-09-09T02:35:12.497Z,20.67
2023-09-09T02:37:39.294Z,21.05
2023-09-09T02:40:06.743Z,22.35
2023-09-09T02:42:33.509Z,18.05
2023-09-09T02:45:00.456Z,19.42
2023-09-09T02:47:27.243Z,19.08
2023-09-09T02:49:53.950Z,21.45
2023-09-09T02:52:21.818Z,20.10
2023-09-09T02:54:49.269Z,20.80
2023-09-09T02:57:16.021Z,18.48
2023-09-09T02:59:42.748Z,19.25
2023-09-09T03:02:09.851Z,18.08
2023-09-09T03:04:36.609Z,17.15
2023-09-09T03:07:03.521Z,18.85
2023-09-09T03:09:32.295Z,18.58
2023-09-09T03:11:59.145Z,18.48
2023-09-09T03:14:25.905Z,16.17
2023-09-09T03:16:52.954Z,16.63
2023-09-09T03:19:19.780Z,17.42
2023-09-09T03:21:47.632Z,16.83
2023-09-09T03:24:14.378Z,18.10
2023-09-09T03:26:41.208Z,19.75
2023-09-09T03:29:07.994Z,18.10
2023-09-09T03:31:35.497Z,16.42
2023-09-09T03:34:02.330Z,15.70
2023-09-09T03:36:29.076Z,18.38
2023-09-09T03:38:55.850Z,20.20
2023-09-09T03:41:22.722Z,19.27
2023-09-09T03:43:49.944Z,22.60
2023-09-09T03:46:16.844Z,21.65
2023-09-09T03:48:43.645Z,21.83
2023-09-09T03:51:10.372Z,21.50
2023-09-09T03:53:37.287Z,22.20
2023-09-09T03:56:05.011Z,21.42
2023-09-09T03:58:31.711Z,21.15
2023-09-09T04:01:09.214Z,22.00
2023-09-09T04:03:38.075Z,21.52
2023-09-09T04:06:07.790Z,22.27
2023-09-09T04:08:35.626Z,24.48
2023-09-09T04:11:02.903Z,23.15
2023-09-09T04:13:29.722Z,23.92
2023-09-09T04:15:57.651Z,22.60
2023-09-09T04:18:38.637Z,23.83
2023-09-09T04:21:11.327Z,24.13
2023-09-09T04:23:38.546Z,21.80
2023-09-09T04:26:05.600Z,23.27
2023-09-09T04:28:32.354Z,23.02
2023-09-09T04:30:59.139Z,15.43
2023-09-09T04:33:25.822Z,13.90
2023-09-09T04:35:52.562Z,15.13
2023-09-09T04:38:20.834Z,13.25
2023-09-09T04:40:47.673Z,13.93
2023-09-09T04:43:14.453Z,13.65
2023-09-09T04:45:41.180Z,14.02
2023-09-09T04:48:08.008Z,13.15
2023-09-09T04:50:34.940Z,14.77
2023-09-09T04:53:03.606Z,14.32
2023-09-09T04:55:30.498Z,18.17
2023-09-09T04:57:57.214Z,16.63
2023-09-09T05:00:23.934Z,16.08
2023-09-09T05:02:50.749Z,18.52
2023-09-09T05:05:17.815Z,15.43
2023-09-09T05:07:44.533Z,14.80
2023-09-09T05:10:11.287Z,16.42
2023-09-09T05:12:38.188Z,15.20
2023-09-09T05:15:08.022Z,13.32
2023-09-09T05:17:35.239Z,12.90
2023-09-09T05:20:02.088Z,12.68
2023-09-09T05:22:28.819Z,12.30
2023-09-09T05:24:55.569Z,18.40
2023-09-09T05:27:22.278Z,15.45
2023-09-09T05:29:48.997Z,14.57
2023-09-09T05:32:17.403Z,13.63
2023-09-09T05:34:44.298Z,15.20
2023-09-09T05:37:11.063Z,20.92
2023-09-09T05:39:37.778Z,18.98
2023-09-09T05:42:06.642Z,16.83
2023-09-09T05:44:36.347Z,17.40
2023-09-09T05:47:05.858Z,17.40
2023-09-09T05:49:39.377Z,18.67
2023-09-09T05:52:08.236Z,16.05
2023-09-09T05:54:35.174Z,20.83
2023-09-09T05:57:02.171Z,25.10
2023-09-09T05:59:28.960Z,23.80
2023-09-09T06:01:55.752Z,24.33
2023-09-09T06:04:22.718Z,27.58
2023-09-09T06:06:50.152Z,25.52
2023-09-09T06:09:17.115Z,23.58
2023-09-09T06:11:44.021Z,22.83
2023-09-09T06:14:10.809Z,18.98
2023-09-09T06:16:37.646Z,18.98
2023-09-09T06:19:04.552Z,18.42
2023-09-09T06:21:31.370Z,20.80
2023-09-09T06:23:58.083Z,21.52
2023-09-09T06:26:25.065Z,17.63
2023-09-09T06:28:52.180Z,21.63
2023-09-09T06:31:19.007Z,14.93
2023-09-09T06:33:45.990Z,14.27
2023-09-09T06:36:12.994Z,15.32
2023-09-09T06:38:39.766Z,15.23
2023-09-09T06:41:06.596Z,14.80
2023-09-09T06:43:35.414Z,17.00
2023-09-09T06:46:02.496Z,19.15
2023-09-09T06:48:31.235Z,15.05
2023-09-09T06:50:58.011Z,16.05
2023-09-09T06:53:25.834Z,14.13
2023-09-09T06:55:53.416Z,24.75
2023-09-09T06:58:20.128Z,19.15
2023-09-09T07:00:51.899Z,23.50
2023-09-09T07:03:19.898Z,19.48
2023-09-09T07:05:46.995Z,18.30
2023-09-09T07:08:13.790Z,27.15
2023-09-09T07:10:48.492Z,23.52
2023-09-09T07:13:15.219Z,30.25
2023-09-09T07:15:42.088Z,22.75
2023-09-09T07:18:08.884Z,32.65
2023-09-09T07:20:35.734Z,29.27
2023-09-09T07:23:02.523Z,33.03
2023-09-09T07:25:29.466Z,30.30
2023-09-09T07:27:56.291Z,33.70
2023-09-09T07:30:23.042Z,31.10
2023-09-09T07:32:50.514Z,25.25
2023-09-09T07:35:17.248Z,23.60
2023-09-09T07:37:44.330Z,24.30
2023-09-09T07:40:11.741Z,23.05
2023-09-09T07:42:38.441Z,23.10
2023-09-09T07:45:05.511Z,24.42
2023-09-09T07:47:32.198Z,28.30
2023-09-09T07:49:59.359Z,31.00
2023-09-09T07:52:26.153Z,27.67
2023-09-09T07:54:53.512Z,23.02
2023-09-09T07:57:20.215Z,23.50
2023-09-09T07:59:48.984Z,25.70
2023-09-09T08:02:15.820Z,25.55
2023-09-09T08:04:42.555Z,23.50
2023-09-09T08:07:09.719Z,22.67
2023-09-09T08:09:36.552Z,24.27
2023-09-09T08:12:03.529Z,23.20
2023-09-09T08:14:31.361Z,22.42
2023-09-09T08:16:58.171Z,16.88
2023-09-09T08:19:25.023Z,19.02
2023-09-09T08:21:52.646Z,24.50
2023-09-09T08:24:19.655Z,16.25
2023-09-09T08:26:46.379Z,19.08
2023-09-09T08:29:13.089Z,24.58
2023-09-09T08:31:39.909Z,19.38
2023-09-09T08:34:06.624Z,16.45
2023-09-09T08:36:33.783Z,13.48
2023-09-09T08:39:00.634Z,16.33
2023-09-09T08:41:39.796Z,14.80
2023-09-09T08:44:26.650Z,16.35
2023-09-09T08:46:55.037Z,13.05
2023-09-09T08:49:25.061Z,13.63
2023-09-09T08:52:16.416Z,13.05
2023-09-09T08:54:44.215Z,19.48
2023-09-09T08:57:11.191Z,13.23
2023-09-09T08:59:39.973Z,13.40
2023-09-09T09:02:10.028Z,16.30
2023-09-09T09:04:38.176Z,11.52
2023-09-09T09:07:06.183Z,14.88
2023-09-09T09:09:33.011Z,10.93
2023-09-09T09:12:03.367Z,12.73
2023-09-09T09:14:30.512Z,13.85
2023-09-09T09:16:57.331Z,13.52
2023-09-09T09:19:31.780Z,12.13
2023-09-09T09:21:59.291Z,14.05
2023-09-09T09:24:27.961Z,15.13
2023-09-09T09:27:00.039Z,12.88
2023-09-09T09:29:39.763Z,12.18
2023-09-09T09:32:06.764Z,11.32
2023-09-09T09:34:35.164Z,15.85
2023-09-09T09:37:13.737Z,11.85
2023-09-09T09:39:40.690Z,11.27
2023-09-09T09:42:11.056Z,15.40
2023-09-09T09:47:07.160Z,9.48
2023-09-09T09:49:43.928Z,9.73
2023-09-09T09:52:10.953Z,10.30
2023-09-09T09:54:39.728Z,9.35
2023-09-09T09:57:07.146Z,10.18
2023-09-09T09:59:37.831Z,8.32
2023-09-09T10:02:04.752Z,13.15
2023-09-09T10:04:47.204Z,8.40
2023-09-09T10:07:18.791Z,10.43
2023-09-09T10:09:57.152Z,9.18
2023-09-09T10:12:47.680Z,8.82
2023-09-09T10:15:17.202Z,11.27
2023-09-09T10:17:45.822Z,8.02
2023-09-09T10:20:13.162Z,11.20
2023-09-09T10:22:43.284Z,8.07
2023-09-09T10:25:12.363Z,8.98
2023-09-09T10:27:41.408Z,8.48
2023-09-09T10:30:09.578Z,8.98
2023-09-09T10:32:37.367Z,10.40
2023-09-09T10:35:08.565Z,8.20
2023-09-09T10:37:37.313Z,8.48
2023-09-09T10:40:05.987Z,8.10
2023-09-09T10:42:36.013Z,7.90
2023-09-09T10:45:31.676Z,7.95
2023-09-09T10:48:07.075Z,8.10
2023-09-09T10:50:48.253Z,8.00
2023-09-09T10:53:25.630Z,7.40
2023-09-09T10:56:13.705Z,9.00
2023-09-09T10:58:40.622Z,8.40
2023-09-09T11:01:08.095Z,9.65
2023-09-09T11:03:50.408Z,10.63
2023-09-09T11:06:22.049Z,9.13
2023-09-09T11:08:49.426Z,8.32
2023-09-09T11:11:36.280Z,9.77
2023-09-09T11:14:05.360Z,7.03
2023-09-09T11:16:35.987Z,8.50
2023-09-09T11:24:03.756Z,6.97
2023-09-09T11:26:31.413Z,8.35
2023-09-09T11:28:58.674Z,8.20
2023-09-09T11:31:28.183Z,5.65
2023-09-09T11:33:58.606Z,5.13
2023-09-09T11:36:25.999Z,5.13
2023-09-09T11:38:54.634Z,5.38
2023-09-09T11:41:23.143Z,5.55
2023-09-09T11:44:07.342Z,6.80
2023-09-09T11:46:39.804Z,6.45
2023-09-09T11:49:07.542Z,5.50
2023-09-09T11:51:36.287Z,5.65
2023-09-09T11:54:04.456Z,6.60
2023-09-09T11:56:34.238Z,5.70
2023-09-09T11:59:10.584Z,5.30
2023-09-09T12:01:55.295Z,7.00
2023-09-09T12:04:22.092Z,5.03
2023-09-09T12:06:51.818Z,5.78
2023-09-09T12:09:19.284Z,5.22
2023-09-09T12:11:46.181Z,5.40
2023-09-09T12:14:14.598Z,7.10
2023-09-09T12:16:43.427Z,6.47
2023-09-09T12:19:17.502Z,5.38
2023-09-09T12:21:50.145Z,5.10
2023-09-09T12:24:17.121Z,5.43
2023-09-09T12:26:54.591Z,7.60
2023-09-09T12:29:21.840Z,8.15
2023-09-09T12:31:56.152Z,5.28
2023-09-09T12:34:25.195Z,5.50
2023-09-09T12:36:57.537Z,5.90
2023-09-09T12:39:31.973Z,5.07
2023-09-09T12:42:02.245Z,5.15
2023-09-09T12:44:31.844Z,4.97
2023-09-09T12:46:58.746Z,4.88
2023-09-09T12:49:28.807Z,5.30
2023-09-09T12:51:55.627Z,5.22
2023-09-09T12:54:22.515Z,5.63
2023-09-09T12:56:49.241Z,4.78
2023-09-09T12:59:15.962Z,5.53
2023-09-09T13:01:42.716Z,7.50
2023-09-09T13:04:09.563Z,5.15
2023-09-09T13:06:36.307Z,5.72
2023-09-09T13:09:03.593Z,5.20
2023-09-09T13:11:31.003Z,5.10
2023-09-09T13:14:07.241Z,6.43
2023-09-09T13:16:43.091Z,5.30
2023-09-09T13:19:10.096Z,4.90
2023-09-09T13:21:36.770Z,5.78
2023-09-09T13:24:04.704Z,4.65
2023-09-09T13:26:31.493Z,4.80
2023-09-09T13:28:58.225Z,4.88
2023-09-09T13:31:24.940Z,6.25
2023-09-09T13:33:51.807Z,5.10
2023-09-09T13:36:18.568Z,4.85
2023-09-09T13:38:46.751Z,5.03
2023-09-09T13:41:13.481Z,7.88
2023-09-09T13:43:41.174Z,9.43
2023-09-09T13:46:08.068Z,4.85
2023-09-09T13:48:35.065Z,4.90
2023-09-09T13:51:01.894Z,4.97
2023-09-09T13:53:28.602Z,5.65
2023-09-09T13:55:57.339Z,5.63
2023-09-09T13:58:24.049Z,5.28
2023-09-09T14:00:53.878Z,5.60
2023-09-09T14:03:21.028Z,5.63
2023-09-09T14:05:47.943Z,5.03
2023-09-09T14:08:14.728Z,5.07
2023-09-09T14:10:41.401Z,5.65
2023-09-09T14:13:08.096Z,5.10
2023-09-09T14:15:34.941Z,6.10
2023-09-09T14:18:01.756Z,6.05
2023-09-09T14:20:28.652Z,5.63
2023-09-09T14:22:55.384Z,6.03
2023-09-09T14:25:22.146Z,5.25
2023-09-09T14:27:48.822Z,6.30
2023-09-09T14:30:15.751Z,5.63
2023-09-09T14:32:42.686Z,5.88
2023-09-09T14:35:09.719Z,6.38
2023-09-09T14:37:36.501Z,6.05
2023-09-09T14:40:04.517Z,4.97
2023-09-09T14:42:32.380Z,6.72
2023-09-09T14:44:59.081Z,6.30
2023-09-09T14:47:25.804Z,7.57
2023-09-09T14:49:52.607Z,8.85
2023-09-09T14:52:19.435Z,5.63
2023-09-09T14:54:46.160Z,5.95
2023-09-09T14:57:12.864Z,6.30
2023-09-09T14:59:39.557Z,5.32
2023-09-09T15:02:06.945Z,5.63
2023-09-09T15:04:34.306Z,5.43
2023-09-09T15:07:01.113Z,5.90
2023-09-09T15:09:27.804Z,5.60
2023-09-09T15:11:55.039Z,6.78
2023-09-09T15:14:21.885Z,5.70
2023-09-09T15:16:50.641Z,5.30
2023-09-09T15:19:19.014Z,5.82
2023-09-09T15:21:45.957Z,6.07
2023-09-09T15:24:13.168Z,7.82
2023-09-09T15:26:40.106Z,7.90
2023-09-09T15:29:07.622Z,5.38
2023-09-09T15:31:35.338Z,27.65
2023-09-09T15:34:02.711Z,6.90
2023-09-09T15:36:29.633Z,10.55
2023-09-09T15:38:56.906Z,6.10
2023-09-09T15:41:24.401Z,8.20
2023-09-09T15:43:52.141Z,8.65
2023-09-09T15:46:19.313Z,8.75
2023-09-09T15:48:46.165Z,30.10
2023-09-09T15:51:13.004Z,9.10
2023-09-09T15:53:39.846Z,6.15
2023-09-09T15:56:12.525Z,6.13
2023-09-09T15:58:40.803Z,9.52
2023-09-09T16:01:08.166Z,11.90
2023-09-09T16:03:37.728Z,6.07
2023-09-09T16:06:09.095Z,13.68
2023-09-09T16:08:38.817Z,9.02
2023-09-09T16:11:06.387Z,6.43
2023-09-09T16:13:33.985Z,5.80
2023-09-09T16:16:09.732Z,9.18
2023-09-09T16:18:41.683Z,8.20
2023-09-09T16:21:09.020Z,5.63
2023-09-09T16:23:35.800Z,7.50
2023-09-09T16:26:02.492Z,7.57
2023-09-09T16:28:29.309Z,6.28
2023-09-09T16:30:56.088Z,6.00
2023-09-09T16:33:23.592Z,5.95
2023-09-09T16:35:50.506Z,12.23
2023-09-09T16:38:17.278Z,5.90
2023-09-09T16:40:45.640Z,6.18
2023-09-09T16:43:12.520Z,8.15
2023-09-09T16:45:40.744Z,6.75
2023-09-09T16:48:12.040Z,7.10
2023-09-09T16:50:39.340Z,6.50
2023-09-09T16:53:08.648Z,6.57
2023-09-09T16:55:35.632Z,6.18
2023-09-09T16:58:02.409Z,5.60
2023-09-09T17:00:29.254Z,7.80
2023-09-09T17:02:56.066Z,6.03
2023-09-09T17:05:23.050Z,5.88
2023-09-09T17:07:50.544Z,5.72
2023-09-09T17:10:17.415Z,6.35
2023-09-09T17:12:44.604Z,9.52
2023-09-09T17:15:11.439Z,6.28
2023-09-09T17:17:38.174Z,7.03
2023-09-09T17:20:05.495Z,7.50
2023-09-09T17:22:32.283Z,7.60
2023-09-09T17:24:59.090Z,5.90
2023-09-09T17:27:25.779Z,6.85
2023-09-09T17:29:52.547Z,6.65
2023-09-09T17:32:19.347Z,6.70
2023-09-09T17:34:46.156Z,6.93
2023-09-09T17:37:12.959Z,9.00
2023-09-09T17:39:39.806Z,7.00
2023-09-09T17:42:06.895Z,7.40
2023-09-09T17:44:33.750Z,7.50
2023-09-09T17:47:00.622Z,7.05
2023-09-09T17:49:28.646Z,7.22
2023-09-09T17:51:55.677Z,7.82
2023-09-09T17:54:26.456Z,6.60
2023-09-09T17:56:55.094Z,6.22
2023-09-09T17:59:22.362Z,12.82
2023-09-09T18:01:50.042Z,8.40
2023-09-09T18:04:17.502Z,6.38
2023-09-09T18:06:44.377Z,6.68
2023-09-09T18:09:11.364Z,7.82
2023-09-09T18:11:38.205Z,6.82
2023-09-09T18:14:05.024Z,9.85
2023-09-09T18:16:32.617Z,7.60
2023-09-09T18:19:00.054Z,9.00
2023-09-09T18:21:27.079Z,7.25
2023-09-09T18:23:56.626Z,6.95
2023-09-09T18:26:24.472Z,7.18
2023-09-09T18:28:51.440Z,9.45
2023-09-09T18:31:20.356Z,6.03
2023-09-09T18:33:47.537Z,6.63
2023-09-09T18:36:14.360Z,7.93
2023-09-09T18:38:43.281Z,14.38
2023-09-09T18:41:11.111Z,6.60
2023-09-09T18:43:38.022Z,7.53
2023-09-09T18:46:05.324Z,7.28
2023-09-09T18:48:32.267Z,8.55
2023-09-09T18:50:59.032Z,7.97
2023-09-09T18:53:26.945Z,8.60
2023-09-09T18:55:54.353Z,8.00
2023-09-09T18:58:22.337Z,9.43
2023-09-09T19:00:53.117Z,8.43
2023-09-09T19:05:48.792Z,14.93
2023-09-09T19:08:16.056Z,12.80
2023-09-09T19:10:42.844Z,17.27
2023-09-09T19:13:12.210Z,23.02
2023-09-09T19:15:39.491Z,22.60
2023-09-09T19:18:06.941Z,27.65
2023-09-09T19:20:34.090Z,15.65
2023-09-09T19:23:00.891Z,18.73
2023-09-09T19:25:27.662Z,25.98
2023-09-09T19:27:54.379Z,43.25
2023-09-09T19:30:21.202Z,46.33
2023-09-09T19:32:48.211Z,33.05
2023-09-09T19:35:15.103Z,27.88
2023-09-09T19:37:41.868Z,30.48
2023-09-09T19:40:09.750Z,30.42
2023-09-09T19:42:36.531Z,30.75
2023-09-09T19:45:14.673Z,29.30
2023-09-09T19:47:41.602Z,28.75
2023-09-09T19:50:09.104Z,22.42
2023-09-09T19:52:36.039Z,23.15
2023-09-09T19:55:03.332Z,26.65
2023-09-09T19:57:30.047Z,28.02
2023-09-09T19:59:57.405Z,27.00
2023-09-09T20:02:24.284Z,32.28
2023-09-09T20:04:51.318Z,28.85
2023-09-09T20:07:18.044Z,25.05
2023-09-09T20:09:44.873Z,21.58
2023-09-09T20:12:14.108Z,35.75
2023-09-09T20:14:40.924Z,39.22
2023-09-09T20:17:07.738Z,41.35
2023-09-09T20:19:34.467Z,34.17
2023-09-09T20:22:01.816Z,33.25
2023-09-09T20:24:28.994Z,31.10
2023-09-09T20:26:55.755Z,28.05
2023-09-09T20:29:22.445Z,25.55
2023-09-09T20:31:50.441Z,22.73
2023-09-09T20:34:17.201Z,25.10
2023-09-09T20:36:43.900Z,24.80
2023-09-09T20:39:10.617Z,27.80
2023-09-09T20:41:37.358Z,37.75
2023-09-09T20:44:04.382Z,44.78
2023-09-09T20:46:31.351Z,35.88
2023-09-09T20:48:59.345Z,39.20
2023-09-09T20:51:26.103Z,43.53
2023-09-09T20:53:52.981Z,35.35
2023-09-09T20:56:20.293Z,37.15
2023-09-09T20:58:47.173Z,33.95
2023-09-09T21:01:13.980Z,32.30
2023-09-09T21:03:41.129Z,38.50
2023-09-09T21:06:08.473Z,31.38
2023-09-09T21:08:35.307Z,29.02
2023-09-09T21:11:02.145Z,35.00
2023-09-09T21:13:29.079Z,28.05
2023-09-09T21:15:55.970Z,24.38
2023-09-09T21:18:22.669Z,18.40
2023-09-09T21:20:49.369Z,22.48
2023-09-09T21:23:16.195Z,28.65
2023-09-09T21:25:43.067Z,32.83
2023-09-09T21:28:09.946Z,28.63
2023-09-09T21:30:36.941Z,26.38
2023-09-09T21:33:06.070Z,29.70
2023-09-09T21:35:32.943Z,25.17
2023-09-09T21:37:59.715Z,23.33
2023-09-09T21:40:26.501Z,23.92
2023-09-09T21:42:53.262Z,32.67
2023-09-09T21:45:22.671Z,25.25
2023-09-09T21:50:17.547Z,21.90
2023-09-09T21:52:44.478Z,23.40
2023-09-09T21:55:11.169Z,26.70
2023-09-09T21:57:37.954Z,23.70
2023-09-09T22:00:20.646Z,25.48
2023-09-09T22:02:49.570Z,22.88
2023-09-09T22:05:17.162Z,26.10
2023-09-09T22:07:45.037Z,29.75
2023-09-09T22:10:11.807Z,26.83
2023-09-09T22:12:39.446Z,24.20
2023-09-09T22:15:08.057Z,21.83
2023-09-09T22:17:38.745Z,21.40
2023-09-09T22:20:12.671Z,17.85
2023-09-09T22:22:40.823Z,20.77
2023-09-09T22:25:12.398Z,20.33
2023-09-09T22:27:39.211Z,19.58
2023-09-09T22:30:06.829Z,21.23
2023-09-09T22:32:34.374Z,20.27
2023-09-09T22:35:07.659Z,18.80
2023-09-09T22:37:40.264Z,25.05
2023-09-09T22:40:09.920Z,17.15
2023-09-09T22:42:36.646Z,19.00
2023-09-09T22:45:04.120Z,20.35
2023-09-09T22:47:30.911Z,23.27
2023-09-09T22:49:57.823Z,23.83
2023-09-09T22:52:24.532Z,19.85
2023-09-09T22:54:52.606Z,22.10
2023-09-09T22:57:19.510Z,20.63
2023-09-09T22:59:46.272Z,17.23
2023-09-09T23:02:13.025Z,20.38
2023-09-09T23:04:40.042Z,17.17
2023-09-09T23:07:06.891Z,17.70
2023-09-09T23:09:33.642Z,21.10
2023-09-09T23:12:00.956Z,15.88
2023-09-09T23:14:28.041Z,18.58
2023-09-09T23:16:54.974Z,18.58
2023-09-09T23:19:21.767Z,16.08
2023-09-09T23:21:48.533Z,18.35
2023-09-09T23:24:15.264Z,19.38
2023-09-09T23:26:41.946Z,16.70
2023-09-09T23:29:08.864Z,22.40
2023-09-09T23:31:35.914Z,17.88
2023-09-09T23:34:03.245Z,17.25
2023-09-09T23:36:30.241Z,16.95
2023-09-09T23:38:57.256Z,16.98
2023-09-09T23:41:24.024Z,17.23
2023-09-09T23:43:50.772Z,17.83
2023-09-09T23:46:17.562Z,18.40
2023-09-09T23:48:44.377Z,15.73
2023-09-09T23:51:11.123Z,20.27
2023-09-09T23:53:37.870Z,15.10
2023-09-09T23:56:06.810Z,13.63
2023-09-09T23:58:34.013Z,15.65
